»·PEaware :: N72C KSLE-KBUR

N72C :: KSLE-KBUR

FLIGHT INFORMATION

Flight Status: Arrived
Operator: Privately registered:
United States
More flights under this callsign
Pilot: Charles C. (26995)
Aircraft: SOCATA TBM-900
(TBM9)
More flights by this aircraft type
Origin: KSLE McNary
United States
Destination: KBUR Bob Hope-Burbank
United States
More flights between these airports :: More routes between these airports
Route: SALEM4 LMT SWR AVE FERN7
File this flight plan on PilotEdge
Remarks:
Altitude:
(Current/Filed)
31,000ft
Speed:
(Current/Filed)
305kts
Departed: 21-Nov-20 01:07 PM
Arrived: 21-Nov-20 03:35 PM
Distance/Time
Traveled:
677nm/2:28
Distance/Time
To Go:
Arrived

Flight Plot

Page will automatically refresh every two minutes.

Flight plan parsing failed; only flown route is shown


Map Options




Map Legend


Flown Route
Filed Route
Departure Airport
Arrival Airport
Navaid (VOR, NDB)
Fix

Horizontal Profiles

Position Reports

Time Latitude Longitude Heading Altitude Ground
Speed
21-Nov-20 12:55 44.910278 -123.007362 43 203ft 0kts
21-Nov-20 12:56 44.910278 -123.007362 43 203ft 0kts
21-Nov-20 12:57 44.910278 -123.007362 43 203ft 0kts
21-Nov-20 12:58 44.910278 -123.007362 43 203ft 0kts
21-Nov-20 12:59 44.910278 -123.007362 43 203ft 0kts
21-Nov-20 13:00 44.910278 -123.007362 43 203ft 0kts
21-Nov-20 13:01 44.910282 -123.007358 43 203ft 1kts
21-Nov-20 13:02 44.912967 -123.005900 329 200ft 14kts
21-Nov-20 13:03 44.915371 -123.007779 330 197ft 15kts
21-Nov-20 13:04 44.915764 -123.007645 64 197ft 0kts
21-Nov-20 13:05 44.915562 -123.006186 149 198ft 0kts
21-Nov-20 13:06 44.900254 -122.994052 148 801ft 123kts
21-Nov-20 13:07 44.866933 -122.972455 159 3119ft 138kts
21-Nov-20 13:08 44.827881 -122.961459 156 5278ft 153kts
21-Nov-20 13:09 44.785852 -122.941664 160 7738ft 159kts
21-Nov-20 13:10 44.742549 -122.922832 156 9957ft 167kts
21-Nov-20 13:11 44.698518 -122.900450 160 12025ft 171kts
21-Nov-20 13:12 44.652989 -122.878512 160 13870ft 177kts
21-Nov-20 13:13 44.605865 -122.855858 160 15544ft 182kts
21-Nov-20 13:14 44.556790 -122.832310 160 17591ft 190kts
21-Nov-20 13:15 44.506710 -122.808324 160 19727ft 195kts
21-Nov-20 13:16 44.454733 -122.783473 160 21604ft 202kts
21-Nov-20 13:17 44.400902 -122.757792 160 23375ft 208kts
21-Nov-20 13:18 44.338445 -122.728042 160 23475ft 265kts
21-Nov-20 13:19 44.266777 -122.693965 160 24284ft 261kts
21-Nov-20 13:20 44.211562 -122.646520 135 26361ft 232kts
21-Nov-20 13:21 44.160098 -122.600111 177 28332ft 229kts
21-Nov-20 13:22 44.096479 -122.608156 170 30024ft 235kts
21-Nov-20 13:23 44.032149 -122.582899 161 31447ft 251kts
21-Nov-20 13:24 43.960930 -122.549687 160 31456ft 286kts
21-Nov-20 13:25 43.883728 -122.513506 160 31445ft 303kts
21-Nov-20 13:26 43.802234 -122.475420 160 31442ft 313kts
21-Nov-20 13:27 43.719173 -122.436716 160 31440ft 316kts
21-Nov-20 13:28 43.635832 -122.397998 160 31434ft 318kts
21-Nov-20 13:29 43.551917 -122.359130 160 31423ft 319kts
21-Nov-20 13:30 43.468672 -122.320683 161 31420ft 319kts
21-Nov-20 13:31 43.384679 -122.282007 161 31415ft 319kts
21-Nov-20 13:32 43.300733 -122.243464 161 31417ft 318kts
21-Nov-20 13:33 43.216981 -122.205121 161 31426ft 318kts
21-Nov-20 13:34 43.132965 -122.166771 161 31430ft 318kts
21-Nov-20 13:35 43.049117 -122.128605 161 31430ft 318kts
21-Nov-20 13:36 42.964869 -122.090369 161 31429ft 319kts
21-Nov-20 13:37 42.880798 -122.052323 161 31429ft 318kts
21-Nov-20 13:38 42.796877 -122.014455 161 31430ft 318kts
21-Nov-20 13:39 42.712581 -121.976526 161 31430ft 318kts
21-Nov-20 13:40 42.628755 -121.938916 161 31430ft 318kts
21-Nov-20 13:41 42.544425 -121.901196 161 31428ft 319kts
21-Nov-20 13:42 42.459909 -121.863460 161 31429ft 323kts
21-Nov-20 13:43 42.374309 -121.825407 162 31432ft 327kts
21-Nov-20 13:44 42.287556 -121.786948 161 31431ft 328kts
21-Nov-20 13:45 42.201057 -121.748677 161 31431ft 327kts
21-Nov-20 13:46 42.115608 -121.708230 158 31430ft 324kts
21-Nov-20 13:47 42.032193 -121.665400 158 31429ft 321kts
21-Nov-20 13:48 41.949046 -121.622850 158 31429ft 319kts
21-Nov-20 13:49 41.866086 -121.580513 158 31429ft 319kts
21-Nov-20 13:50 41.783280 -121.538369 158 31430ft 319kts
21-Nov-20 13:51 41.700454 -121.496331 158 31430ft 319kts
21-Nov-20 13:52 41.617326 -121.454249 158 31429ft 319kts
21-Nov-20 13:53 41.534555 -121.412475 158 31428ft 319kts
21-Nov-20 13:54 41.451491 -121.370662 158 31425ft 319kts
21-Nov-20 13:55 41.368610 -121.329057 159 31418ft 319kts
21-Nov-20 13:56 41.285431 -121.287415 159 31412ft 319kts
21-Nov-20 13:57 41.202409 -121.245966 159 31411ft 319kts
21-Nov-20 13:58 41.119241 -121.204555 159 31411ft 319kts
21-Nov-20 13:59 41.036333 -121.163386 159 31411ft 319kts
21-Nov-20 14:00 40.953150 -121.122193 159 31411ft 319kts
21-Nov-20 14:01 40.871020 -121.081629 159 31425ft 318kts
21-Nov-20 14:03 40.788205 -121.040836 159 31438ft 318kts
21-Nov-20 14:04 40.705325 -121.000119 159 31439ft 319kts
21-Nov-20 14:05 40.622093 -120.959338 159 31438ft 319kts
21-Nov-20 14:06 40.538924 -120.918696 159 31439ft 319kts
21-Nov-20 14:07 40.456042 -120.878302 159 31439ft 319kts
21-Nov-20 14:08 40.372942 -120.837908 159 31439ft 319kts
21-Nov-20 14:09 40.289683 -120.797545 159 31439ft 319kts
21-Nov-20 14:10 40.206465 -120.757306 159 31439ft 319kts
21-Nov-20 14:11 40.123346 -120.717221 159 31439ft 319kts
21-Nov-20 14:12 40.040035 -120.677148 159 31439ft 319kts
21-Nov-20 14:13 39.956762 -120.637198 159 31439ft 319kts
21-Nov-20 14:14 39.873453 -120.597334 159 31439ft 319kts
21-Nov-20 14:15 39.790155 -120.557579 159 31413ft 320kts
21-Nov-20 14:16 39.706429 -120.517722 159 31355ft 320kts
21-Nov-20 14:17 39.622770 -120.478000 159 31329ft 320kts
21-Nov-20 14:17 39.553484 -120.445181 159 31338ft 319kts
21-Nov-20 14:19 39.456228 -120.399230 159 31352ft 319kts
21-Nov-20 14:19 39.386808 -120.366515 159 31362ft 319kts
21-Nov-20 14:20 39.303484 -120.327339 159 31374ft 319kts
21-Nov-20 14:22 39.206382 -120.281812 159 31388ft 319kts
21-Nov-20 14:22 39.134059 -120.265669 175 31383ft 319kts
21-Nov-20 14:24 39.030846 -120.256732 175 31362ft 320kts
21-Nov-20 14:24 38.955805 -120.250090 179 31343ft 333kts
21-Nov-20 14:26 38.849707 -120.241042 187 31341ft 311kts
21-Nov-20 14:26 38.779842 -120.235161 187 31342ft 295kts
21-Nov-20 14:27 38.699103 -120.228301 187 31344ft 288kts
21-Nov-20 14:28 38.619353 -120.221531 187 31345ft 286kts
21-Nov-20 14:29 38.540230 -120.214815 187 31346ft 285kts
21-Nov-20 14:30 38.461541 -120.208118 188 31341ft 281kts
21-Nov-20 14:31 38.384138 -120.201597 188 31341ft 278kts
21-Nov-20 14:32 38.306698 -120.195062 188 31287ft 280kts
21-Nov-20 14:33 38.228800 -120.188507 187 31236ft 281kts
21-Nov-20 14:34 38.151168 -120.181972 188 31237ft 280kts
21-Nov-20 14:35 38.073438 -120.175459 187 31241ft 279kts
21-Nov-20 14:36 37.995886 -120.168960 188 31237ft 279kts
21-Nov-20 14:37 37.918534 -120.162498 188 31231ft 279kts
21-Nov-20 14:38 37.840959 -120.156042 188 31239ft 280kts
21-Nov-20 14:39 37.763243 -120.149581 187 31238ft 280kts
21-Nov-20 14:40 37.685340 -120.143110 187 31237ft 280kts
21-Nov-20 14:41 37.607669 -120.136674 188 31237ft 280kts
21-Nov-20 14:42 37.529716 -120.130239 188 31238ft 281kts
21-Nov-20 14:43 37.452071 -120.123839 187 31239ft 280kts
21-Nov-20 14:44 37.374270 -120.117426 188 31239ft 280kts
21-Nov-20 14:45 37.296693 -120.111063 187 31240ft 280kts
21-Nov-20 14:46 37.218701 -120.104666 188 31239ft 280kts
21-Nov-20 14:47 37.141209 -120.098334 188 31241ft 280kts
21-Nov-20 14:48 37.063372 -120.091927 189 31242ft 280kts
21-Nov-20 14:49 36.985321 -120.085561 191 31241ft 283kts
21-Nov-20 14:50 36.906720 -120.079230 191 31243ft 285kts
21-Nov-20 14:51 36.827477 -120.072816 191 31247ft 286kts
21-Nov-20 14:52 36.747968 -120.066376 191 31245ft 287kts
21-Nov-20 14:53 36.668471 -120.059956 191 31240ft 287kts
21-Nov-20 14:54 36.588854 -120.053540 191 31240ft 287kts
21-Nov-20 14:55 36.509168 -120.047132 191 31237ft 288kts
21-Nov-20 14:56 36.429376 -120.040725 191 31236ft 287kts
21-Nov-20 14:57 36.349631 -120.034331 191 31236ft 287kts
21-Nov-20 14:58 36.270097 -120.027982 191 31237ft 288kts
21-Nov-20 14:59 36.190314 -120.021618 191 31236ft 287kts
21-Nov-20 15:00 36.110448 -120.015247 191 31235ft 287kts
21-Nov-20 15:01 36.030951 -120.008941 191 31234ft 287kts
21-Nov-20 15:02 35.951203 -120.002618 191 31235ft 287kts
21-Nov-20 15:03 35.871436 -119.996299 191 31239ft 287kts
21-Nov-20 15:04 35.791633 -119.990009 191 31225ft 288kts
21-Nov-20 15:05 35.711712 -119.983700 191 31194ft 289kts
21-Nov-20 15:06 35.631081 -119.964917 164 31181ft 329kts
21-Nov-20 15:07 35.554770 -119.898761 159 31195ft 336kts
21-Nov-20 15:08 35.478687 -119.833019 159 31203ft 336kts
21-Nov-20 15:09 35.402436 -119.767302 159 31217ft 335kts
21-Nov-20 15:10 35.323551 -119.699587 157 30122ft 361kts
21-Nov-20 15:11 35.239864 -119.627735 156 28567ft 370kts
21-Nov-20 15:12 35.156321 -119.556625 155 26866ft 360kts
21-Nov-20 15:13 35.074820 -119.486776 154 24544ft 361kts
21-Nov-20 15:14 34.993567 -119.417592 152 22100ft 351kts
21-Nov-20 15:15 34.914902 -119.350980 151 19710ft 341kts
21-Nov-20 15:16 34.837372 -119.285632 151 17254ft 330kts
21-Nov-20 15:17 34.763932 -119.223661 149 14837ft 311kts
21-Nov-20 15:18 34.693407 -119.164504 148 12502ft 305kts
21-Nov-20 15:19 34.626868 -119.108067 148 11405ft 283kts
21-Nov-20 15:20 34.564277 -119.055154 148 11023ft 264kts
21-Nov-20 15:21 34.504816 -119.005111 148 11026ft 257kts
21-Nov-20 15:22 34.445739 -118.955718 148 10634ft 269kts
21-Nov-20 15:23 34.383166 -118.903875 147 9142ft 271kts
21-Nov-20 15:24 34.319548 -118.856883 152 7387ft 268kts
21-Nov-20 15:25 34.270863 -118.791737 119 5579ft 265kts
21-Nov-20 15:26 34.235563 -118.714859 119 4019ft 247kts
21-Nov-20 15:27 34.207175 -118.651474 122 3787ft 202kts
21-Nov-20 15:28 34.199419 -118.585944 87 3253ft 197kts
21-Nov-20 15:29 34.200019 -118.528367 88 3475ft 184kts
21-Nov-20 15:30 34.197194 -118.478362 86 2814ft 127kts
21-Nov-20 15:31 34.199418 -118.436084 92 1823ft 119kts
21-Nov-20 15:32 34.198396 -118.397116 91 1311ft 97kts
21-Nov-20 15:33 34.197933 -118.366506 92 728ft 76kts
21-Nov-20 15:34 34.199081 -118.360314 4 719ft 4kts
21-Nov-20 15:35 34.199614 -118.359882 63 720ft 0kts
21-Nov-20 15:36 34.199614 -118.359882 63 720ft 0kts
21-Nov-20 15:37 34.199614 -118.359882 63 720ft 0kts
21-Nov-20 15:38 34.199614 -118.359882 63 720ft 0kts

Navigation Log

Ident Type
Flight plan parsing failed, navigation log unavailable